sensor_id;sensor_type;location;lat;lon;timestamp;P1;durP1;ratioP1;P2;durP2;ratioP2
2548;SDS011;1284;53.520;10.248;2022-08-19T00:01:46;6.03;;;3.88;;
2548;SDS011;1284;53.520;10.248;2022-08-19T00:04:13;6.85;;;4.10;;
2548;SDS011;1284;53.520;10.248;2022-08-19T00:06:42;6.93;;;3.50;;
2548;SDS011;1284;53.520;10.248;2022-08-19T00:09:11;9.00;;;3.70;;
2548;SDS011;1284;53.520;10.248;2022-08-19T00:11:38;8.18;;;3.78;;
2548;SDS011;1284;53.520;10.248;2022-08-19T00:14:05;12.80;;;3.80;;
2548;SDS011;1284;53.520;10.248;2022-08-19T00:16:52;11.32;;;4.22;;
2548;SDS011;1284;53.520;10.248;2022-08-19T00:19:19;11.18;;;4.47;;
2548;SDS011;1284;53.520;10.248;2022-08-19T00:21:46;10.50;;;4.53;;
2548;SDS011;1284;53.520;10.248;2022-08-19T00:24:13;11.80;;;4.70;;
2548;SDS011;1284;53.520;10.248;2022-08-19T00:26:40;12.30;;;5.00;;
2548;SDS011;1284;53.520;10.248;2022-08-19T00:29:07;8.68;;;4.45;;
2548;SDS011;1284;53.520;10.248;2022-08-19T00:31:34;10.15;;;4.63;;
2548;SDS011;1284;53.520;10.248;2022-08-19T00:34:00;8.68;;;4.63;;
2548;SDS011;1284;53.520;10.248;2022-08-19T00:36:26;11.50;;;4.88;;
2548;SDS011;1284;53.520;10.248;2022-08-19T00:38:53;11.10;;;4.57;;
2548;SDS011;1284;53.520;10.248;2022-08-19T00:41:20;9.10;;;4.18;;
2548;SDS011;1284;53.520;10.248;2022-08-19T00:46:29;9.80;;;5.32;;
2548;SDS011;1284;53.520;10.248;2022-08-19T00:48:55;11.60;;;4.88;;
2548;SDS011;1284;53.520;10.248;2022-08-19T00:51:23;11.65;;;5.15;;
2548;SDS011;1284;53.520;10.248;2022-08-19T00:53:51;9.95;;;4.93;;
2548;SDS011;1284;53.520;10.248;2022-08-19T00:56:18;10.68;;;4.78;;
2548;SDS011;1284;53.520;10.248;2022-08-19T00:58:43;15.35;;;5.97;;
2548;SDS011;1284;53.520;10.248;2022-08-19T01:01:09;16.65;;;5.57;;
2548;SDS011;1284;53.520;10.248;2022-08-19T01:03:35;16.48;;;6.47;;
2548;SDS011;1284;53.520;10.248;2022-08-19T01:06:00;13.13;;;6.45;;
2548;SDS011;1284;53.520;10.248;2022-08-19T01:08:26;13.80;;;6.53;;
2548;SDS011;1284;53.520;10.248;2022-08-19T01:10:55;18.65;;;5.78;;
2548;SDS011;1284;53.520;10.248;2022-08-19T01:15:51;13.93;;;6.80;;
2548;SDS011;1284;53.520;10.248;2022-08-19T01:18:20;13.13;;;6.13;;
2548;SDS011;1284;53.520;10.248;2022-08-19T01:20:47;14.95;;;6.70;;
2548;SDS011;1284;53.520;10.248;2022-08-19T01:23:13;14.27;;;6.03;;
2548;SDS011;1284;53.520;10.248;2022-08-19T01:25:50;13.50;;;6.20;;
2548;SDS011;1284;53.520;10.248;2022-08-19T01:28:19;16.05;;;6.70;;
2548;SDS011;1284;53.520;10.248;2022-08-19T01:30:51;14.23;;;6.53;;
2548;SDS011;1284;53.520;10.248;2022-08-19T01:33:17;16.45;;;7.30;;
2548;SDS011;1284;53.520;10.248;2022-08-19T01:35:44;12.77;;;6.13;;
2548;SDS011;1284;53.520;10.248;2022-08-19T01:38:18;16.35;;;6.68;;
2548;SDS011;1284;53.520;10.248;2022-08-19T01:40:46;12.07;;;6.13;;
2548;SDS011;1284;53.520;10.248;2022-08-19T01:43:11;14.88;;;6.13;;
2548;SDS011;1284;53.520;10.248;2022-08-19T01:45:37;16.40;;;6.70;;
2548;SDS011;1284;53.520;10.248;2022-08-19T01:48:05;16.73;;;7.25;;
2548;SDS011;1284;53.520;10.248;2022-08-19T01:50:34;16.15;;;6.28;;
2548;SDS011;1284;53.520;10.248;2022-08-19T01:53:03;18.00;;;6.63;;
2548;SDS011;1284;53.520;10.248;2022-08-19T01:55:31;14.02;;;6.40;;
2548;SDS011;1284;53.520;10.248;2022-08-19T01:57:58;14.88;;;6.63;;
2548;SDS011;1284;53.520;10.248;2022-08-19T02:00:28;15.52;;;5.78;;
2548;SDS011;1284;53.520;10.248;2022-08-19T02:02:56;14.75;;;6.78;;
2548;SDS011;1284;53.520;10.248;2022-08-19T02:05:22;12.43;;;6.03;;
2548;SDS011;1284;53.520;10.248;2022-08-19T02:07:48;14.48;;;6.22;;
2548;SDS011;1284;53.520;10.248;2022-08-19T02:10:15;16.33;;;6.75;;
2548;SDS011;1284;53.520;10.248;2022-08-19T02:12:43;17.90;;;6.30;;
2548;SDS011;1284;53.520;10.248;2022-08-19T02:15:10;13.30;;;5.63;;
2548;SDS011;1284;53.520;10.248;2022-08-19T02:17:36;15.75;;;6.38;;
2548;SDS011;1284;53.520;10.248;2022-08-19T02:20:03;15.48;;;6.43;;
2548;SDS011;1284;53.520;10.248;2022-08-19T02:22:31;15.13;;;6.13;;
2548;SDS011;1284;53.520;10.248;2022-08-19T02:24:57;12.05;;;6.20;;
2548;SDS011;1284;53.520;10.248;2022-08-19T02:27:22;14.27;;;5.68;;
2548;SDS011;1284;53.520;10.248;2022-08-19T02:29:49;20.02;;;6.65;;
2548;SDS011;1284;53.520;10.248;2022-08-19T02:32:15;15.23;;;6.50;;
2548;SDS011;1284;53.520;10.248;2022-08-19T02:34:41;14.48;;;6.03;;
2548;SDS011;1284;53.520;10.248;2022-08-19T02:37:07;14.23;;;6.03;;
2548;SDS011;1284;53.520;10.248;2022-08-19T02:39:52;12.60;;;5.13;;
2548;SDS011;1284;53.520;10.248;2022-08-19T02:42:18;12.48;;;5.68;;
2548;SDS011;1284;53.520;10.248;2022-08-19T02:44:43;15.75;;;5.55;;
2548;SDS011;1284;53.520;10.248;2022-08-19T02:47:09;15.35;;;5.78;;
2548;SDS011;1284;53.520;10.248;2022-08-19T02:49:35;12.95;;;5.78;;
2548;SDS011;1284;53.520;10.248;2022-08-19T02:52:01;11.98;;;5.90;;
2548;SDS011;1284;53.520;10.248;2022-08-19T02:54:28;12.32;;;5.25;;
2548;SDS011;1284;53.520;10.248;2022-08-19T02:56:53;10.57;;;4.78;;
2548;SDS011;1284;53.520;10.248;2022-08-19T02:59:19;11.95;;;6.32;;
2548;SDS011;1284;53.520;10.248;2022-08-19T03:01:45;16.40;;;5.88;;
2548;SDS011;1284;53.520;10.248;2022-08-19T03:04:12;13.52;;;5.70;;
2548;SDS011;1284;53.520;10.248;2022-08-19T03:06:40;15.45;;;6.18;;
2548;SDS011;1284;53.520;10.248;2022-08-19T03:09:09;9.90;;;5.20;;
2548;SDS011;1284;53.520;10.248;2022-08-19T03:11:34;14.05;;;5.55;;
2548;SDS011;1284;53.520;10.248;2022-08-19T03:14:00;10.13;;;5.43;;
2548;SDS011;1284;53.520;10.248;2022-08-19T03:16:27;12.05;;;5.38;;
2548;SDS011;1284;53.520;10.248;2022-08-19T03:18:55;14.05;;;5.57;;
2548;SDS011;1284;53.520;10.248;2022-08-19T03:21:25;13.43;;;5.70;;
2548;SDS011;1284;53.520;10.248;2022-08-19T03:23:56;10.02;;;5.13;;
2548;SDS011;1284;53.520;10.248;2022-08-19T03:26:22;12.48;;;5.28;;
2548;SDS011;1284;53.520;10.248;2022-08-19T03:28:48;11.85;;;5.45;;
2548;SDS011;1284;53.520;10.248;2022-08-19T03:31:15;15.20;;;5.35;;
2548;SDS011;1284;53.520;10.248;2022-08-19T03:33:42;9.05;;;5.03;;
2548;SDS011;1284;53.520;10.248;2022-08-19T03:36:29;11.60;;;5.00;;
2548;SDS011;1284;53.520;10.248;2022-08-19T03:38:55;11.15;;;5.40;;
2548;SDS011;1284;53.520;10.248;2022-08-19T03:41:32;12.43;;;5.22;;
2548;SDS011;1284;53.520;10.248;2022-08-19T03:44:02;15.68;;;6.00;;
2548;SDS011;1284;53.520;10.248;2022-08-19T03:46:29;12.30;;;4.72;;
2548;SDS011;1284;53.520;10.248;2022-08-19T03:48:56;10.95;;;4.72;;
2548;SDS011;1284;53.520;10.248;2022-08-19T03:51:27;10.05;;;4.95;;
2548;SDS011;1284;53.520;10.248;2022-08-19T03:53:58;14.73;;;5.30;;
2548;SDS011;1284;53.520;10.248;2022-08-19T03:56:25;11.50;;;5.65;;
2548;SDS011;1284;53.520;10.248;2022-08-19T03:58:53;11.63;;;5.40;;
2548;SDS011;1284;53.520;10.248;2022-08-19T04:01:24;14.15;;;5.53;;
2548;SDS011;1284;53.520;10.248;2022-08-19T04:03:51;12.30;;;5.25;;
2548;SDS011;1284;53.520;10.248;2022-08-19T04:06:19;12.80;;;5.38;;
2548;SDS011;1284;53.520;10.248;2022-08-19T04:08:47;13.73;;;6.00;;
2548;SDS011;1284;53.520;10.248;2022-08-19T04:11:16;15.98;;;5.78;;
2548;SDS011;1284;53.520;10.248;2022-08-19T04:16:12;15.80;;;6.13;;
2548;SDS011;1284;53.520;10.248;2022-08-19T04:18:38;17.25;;;6.13;;
2548;SDS011;1284;53.520;10.248;2022-08-19T04:21:05;16.00;;;5.53;;
2548;SDS011;1284;53.520;10.248;2022-08-19T04:23:32;14.93;;;5.90;;
2548;SDS011;1284;53.520;10.248;2022-08-19T04:25:59;17.98;;;6.13;;
2548;SDS011;1284;53.520;10.248;2022-08-19T04:28:24;14.80;;;5.75;;
2548;SDS011;1284;53.520;10.248;2022-08-19T04:30:51;15.25;;;6.20;;
2548;SDS011;1284;53.520;10.248;2022-08-19T04:35:51;15.63;;;6.18;;
2548;SDS011;1284;53.520;10.248;2022-08-19T04:38:20;18.80;;;5.65;;
2548;SDS011;1284;53.520;10.248;2022-08-19T04:40:50;17.83;;;5.35;;
2548;SDS011;1284;53.520;10.248;2022-08-19T04:43:36;13.70;;;5.72;;
2548;SDS011;1284;53.520;10.248;2022-08-19T04:46:09;14.90;;;5.65;;
2548;SDS011;1284;53.520;10.248;2022-08-19T04:48:36;12.75;;;5.65;;
2548;SDS011;1284;53.520;10.248;2022-08-19T04:51:05;13.52;;;5.43;;
2548;SDS011;1284;53.520;10.248;2022-08-19T04:53:33;13.65;;;5.40;;
2548;SDS011;1284;53.520;10.248;2022-08-19T04:56:03;15.15;;;6.15;;
2548;SDS011;1284;53.520;10.248;2022-08-19T04:58:40;16.65;;;5.88;;
2548;SDS011;1284;53.520;10.248;2022-08-19T05:01:08;11.43;;;5.18;;
2548;SDS011;1284;53.520;10.248;2022-08-19T05:03:36;16.98;;;5.80;;
2548;SDS011;1284;53.520;10.248;2022-08-19T05:06:07;14.85;;;5.95;;
2548;SDS011;1284;53.520;10.248;2022-08-19T05:08:35;16.77;;;5.65;;
2548;SDS011;1284;53.520;10.248;2022-08-19T05:11:06;14.45;;;5.07;;
2548;SDS011;1284;53.520;10.248;2022-08-19T05:13:52;12.60;;;5.50;;
2548;SDS011;1284;53.520;10.248;2022-08-19T05:16:19;14.50;;;6.00;;
2548;SDS011;1284;53.520;10.248;2022-08-19T05:18:46;15.10;;;5.88;;
2548;SDS011;1284;53.520;10.248;2022-08-19T05:21:31;12.60;;;5.75;;
2548;SDS011;1284;53.520;10.248;2022-08-19T05:24:16;17.25;;;5.45;;
2548;SDS011;1284;53.520;10.248;2022-08-19T05:26:43;15.43;;;5.68;;
2548;SDS011;1284;53.520;10.248;2022-08-19T05:29:17;15.05;;;5.82;;
2548;SDS011;1284;53.520;10.248;2022-08-19T05:34:10;14.52;;;5.32;;
2548;SDS011;1284;53.520;10.248;2022-08-19T05:36:37;15.93;;;5.57;;
2548;SDS011;1284;53.520;10.248;2022-08-19T05:39:06;14.25;;;5.95;;
2548;SDS011;1284;53.520;10.248;2022-08-19T05:41:33;16.30;;;6.45;;
2548;SDS011;1284;53.520;10.248;2022-08-19T05:44:04;15.70;;;6.30;;
2548;SDS011;1284;53.520;10.248;2022-08-19T05:46:34;16.45;;;6.22;;
2548;SDS011;1284;53.520;10.248;2022-08-19T05:49:04;13.98;;;5.45;;
2548;SDS011;1284;53.520;10.248;2022-08-19T05:51:31;17.88;;;5.47;;
2548;SDS011;1284;53.520;10.248;2022-08-19T05:53:59;15.40;;;5.60;;
2548;SDS011;1284;53.520;10.248;2022-08-19T05:56:25;13.02;;;5.93;;
2548;SDS011;1284;53.520;10.248;2022-08-19T05:58:51;15.98;;;6.28;;
2548;SDS011;1284;53.520;10.248;2022-08-19T06:01:19;15.20;;;5.75;;
2548;SDS011;1284;53.520;10.248;2022-08-19T06:03:45;16.02;;;5.55;;
2548;SDS011;1284;53.520;10.248;2022-08-19T06:06:13;19.13;;;6.40;;
2548;SDS011;1284;53.520;10.248;2022-08-19T06:08:40;15.27;;;5.97;;
2548;SDS011;1284;53.520;10.248;2022-08-19T06:14:01;20.55;;;6.60;;
2548;SDS011;1284;53.520;10.248;2022-08-19T06:16:29;19.42;;;5.90;;
2548;SDS011;1284;53.520;10.248;2022-08-19T06:18:55;15.18;;;5.35;;
2548;SDS011;1284;53.520;10.248;2022-08-19T06:21:23;14.60;;;5.97;;
2548;SDS011;1284;53.520;10.248;2022-08-19T06:23:50;14.23;;;6.03;;
2548;SDS011;1284;53.520;10.248;2022-08-19T06:26:17;12.93;;;5.72;;
2548;SDS011;1284;53.520;10.248;2022-08-19T06:28:44;18.65;;;5.72;;
2548;SDS011;1284;53.520;10.248;2022-08-19T06:31:14;15.57;;;5.93;;
2548;SDS011;1284;53.520;10.248;2022-08-19T06:33:41;16.13;;;6.25;;
2548;SDS011;1284;53.520;10.248;2022-08-19T06:36:15;17.50;;;6.15;;
2548;SDS011;1284;53.520;10.248;2022-08-19T06:39:05;16.85;;;6.03;;
2548;SDS011;1284;53.520;10.248;2022-08-19T06:41:36;15.80;;;6.43;;
2548;SDS011;1284;53.520;10.248;2022-08-19T06:44:15;13.27;;;6.15;;
2548;SDS011;1284;53.520;10.248;2022-08-19T06:46:43;15.75;;;6.78;;
2548;SDS011;1284;53.520;10.248;2022-08-19T06:49:09;16.00;;;6.25;;
2548;SDS011;1284;53.520;10.248;2022-08-19T06:51:36;14.77;;;6.63;;
2548;SDS011;1284;53.520;10.248;2022-08-19T06:54:03;19.17;;;6.63;;
2548;SDS011;1284;53.520;10.248;2022-08-19T06:56:30;19.13;;;6.20;;
2548;SDS011;1284;53.520;10.248;2022-08-19T06:59:00;16.90;;;6.95;;
2548;SDS011;1284;53.520;10.248;2022-08-19T07:01:33;14.70;;;6.45;;
2548;SDS011;1284;53.520;10.248;2022-08-19T07:04:00;15.15;;;6.32;;
2548;SDS011;1284;53.520;10.248;2022-08-19T07:06:26;18.80;;;6.03;;
2548;SDS011;1284;53.520;10.248;2022-08-19T07:08:52;14.68;;;5.53;;
2548;SDS011;1284;53.520;10.248;2022-08-19T07:11:17;14.38;;;6.32;;
2548;SDS011;1284;53.520;10.248;2022-08-19T07:13:44;16.27;;;6.05;;
2548;SDS011;1284;53.520;10.248;2022-08-19T07:16:15;20.70;;;6.90;;
2548;SDS011;1284;53.520;10.248;2022-08-19T07:18:45;12.90;;;5.82;;
2548;SDS011;1284;53.520;10.248;2022-08-19T07:21:19;19.02;;;6.70;;
2548;SDS011;1284;53.520;10.248;2022-08-19T07:23:49;20.55;;;7.53;;
2548;SDS011;1284;53.520;10.248;2022-08-19T07:26:22;13.05;;;5.13;;
2548;SDS011;1284;53.520;10.248;2022-08-19T07:28:50;13.77;;;5.45;;
2548;SDS011;1284;53.520;10.248;2022-08-19T07:31:17;11.07;;;4.97;;
2548;SDS011;1284;53.520;10.248;2022-08-19T07:33:45;13.93;;;5.10;;
2548;SDS011;1284;53.520;10.248;2022-08-19T07:36:12;16.50;;;6.32;;
2548;SDS011;1284;53.520;10.248;2022-08-19T07:38:40;14.77;;;6.28;;
2548;SDS011;1284;53.520;10.248;2022-08-19T07:41:12;16.98;;;5.53;;
2548;SDS011;1284;53.520;10.248;2022-08-19T07:46:05;11.57;;;5.13;;
2548;SDS011;1284;53.520;10.248;2022-08-19T07:48:32;15.48;;;5.07;;
2548;SDS011;1284;53.520;10.248;2022-08-19T07:50:59;13.43;;;4.95;;
2548;SDS011;1284;53.520;10.248;2022-08-19T07:53:29;15.27;;;5.68;;
2548;SDS011;1284;53.520;10.248;2022-08-19T07:55:56;15.13;;;5.93;;
2548;SDS011;1284;53.520;10.248;2022-08-19T07:58:29;16.17;;;5.53;;
2548;SDS011;1284;53.520;10.248;2022-08-19T08:00:56;15.48;;;5.65;;
2548;SDS011;1284;53.520;10.248;2022-08-19T08:03:22;16.00;;;6.50;;
2548;SDS011;1284;53.520;10.248;2022-08-19T08:06:08;15.77;;;5.93;;
2548;SDS011;1284;53.520;10.248;2022-08-19T08:08:52;20.83;;;6.55;;
2548;SDS011;1284;53.520;10.248;2022-08-19T08:11:47;18.65;;;6.65;;
2548;SDS011;1284;53.520;10.248;2022-08-19T08:14:21;19.98;;;7.18;;
2548;SDS011;1284;53.520;10.248;2022-08-19T08:16:52;15.90;;;6.57;;
2548;SDS011;1284;53.520;10.248;2022-08-19T08:19:19;20.02;;;6.35;;
2548;SDS011;1284;53.520;10.248;2022-08-19T08:21:47;19.30;;;6.63;;
2548;SDS011;1284;53.520;10.248;2022-08-19T08:24:14;23.80;;;7.25;;
2548;SDS011;1284;53.520;10.248;2022-08-19T08:26:41;16.75;;;7.35;;
2548;SDS011;1284;53.520;10.248;2022-08-19T08:29:09;21.90;;;7.55;;
2548;SDS011;1284;53.520;10.248;2022-08-19T08:31:37;21.30;;;7.30;;
2548;SDS011;1284;53.520;10.248;2022-08-19T08:34:05;22.85;;;7.78;;
2548;SDS011;1284;53.520;10.248;2022-08-19T08:36:30;20.13;;;7.05;;
2548;SDS011;1284;53.520;10.248;2022-08-19T08:38:59;18.27;;;6.68;;
2548;SDS011;1284;53.520;10.248;2022-08-19T08:44:05;16.00;;;6.63;;
2548;SDS011;1284;53.520;10.248;2022-08-19T08:49:31;18.65;;;7.05;;
2548;SDS011;1284;53.520;10.248;2022-08-19T08:52:06;16.50;;;7.00;;
2548;SDS011;1284;53.520;10.248;2022-08-19T08:54:41;21.27;;;7.20;;
2548;SDS011;1284;53.520;10.248;2022-08-19T08:57:10;20.42;;;7.25;;
2548;SDS011;1284;53.520;10.248;2022-08-19T08:59:40;19.25;;;7.25;;
2548;SDS011;1284;53.520;10.248;2022-08-19T09:02:08;18.98;;;6.65;;
2548;SDS011;1284;53.520;10.248;2022-08-19T09:04:37;18.40;;;6.20;;
2548;SDS011;1284;53.520;10.248;2022-08-19T09:07:22;20.08;;;7.38;;
2548;SDS011;1284;53.520;10.248;2022-08-19T09:10:17;18.15;;;6.72;;
2548;SDS011;1284;53.520;10.248;2022-08-19T09:15:38;15.88;;;6.53;;
2548;SDS011;1284;53.520;10.248;2022-08-19T09:18:09;22.13;;;6.70;;
2548;SDS011;1284;53.520;10.248;2022-08-19T09:20:35;16.95;;;6.40;;
2548;SDS011;1284;53.520;10.248;2022-08-19T09:23:01;20.50;;;6.72;;
2548;SDS011;1284;53.520;10.248;2022-08-19T09:25:26;13.88;;;6.18;;
2548;SDS011;1284;53.520;10.248;2022-08-19T09:27:53;13.32;;;6.18;;
2548;SDS011;1284;53.520;10.248;2022-08-19T09:30:24;14.07;;;5.70;;
2548;SDS011;1284;53.520;10.248;2022-08-19T09:32:52;17.17;;;5.90;;
2548;SDS011;1284;53.520;10.248;2022-08-19T09:35:24;15.02;;;5.75;;
2548;SDS011;1284;53.520;10.248;2022-08-19T09:37:51;12.48;;;5.93;;
2548;SDS011;1284;53.520;10.248;2022-08-19T09:40:18;18.20;;;6.45;;
2548;SDS011;1284;53.520;10.248;2022-08-19T09:42:45;17.27;;;6.10;;
2548;SDS011;1284;53.520;10.248;2022-08-19T09:45:14;14.02;;;5.60;;
2548;SDS011;1284;53.520;10.248;2022-08-19T09:47:42;12.20;;;5.15;;
2548;SDS011;1284;53.520;10.248;2022-08-19T09:50:08;14.07;;;5.43;;
2548;SDS011;1284;53.520;10.248;2022-08-19T09:52:36;14.35;;;5.50;;
2548;SDS011;1284;53.520;10.248;2022-08-19T09:55:06;11.65;;;5.07;;
2548;SDS011;1284;53.520;10.248;2022-08-19T09:57:32;18.27;;;6.00;;
2548;SDS011;1284;53.520;10.248;2022-08-19T09:59:58;14.55;;;6.00;;
2548;SDS011;1284;53.520;10.248;2022-08-19T10:02:24;14.27;;;6.25;;
2548;SDS011;1284;53.520;10.248;2022-08-19T10:04:50;11.93;;;4.82;;
2548;SDS011;1284;53.520;10.248;2022-08-19T10:07:34;16.10;;;5.35;;
2548;SDS011;1284;53.520;10.248;2022-08-19T10:10:00;18.83;;;7.03;;
2548;SDS011;1284;53.520;10.248;2022-08-19T10:12:27;15.35;;;6.15;;
2548;SDS011;1284;53.520;10.248;2022-08-19T10:14:53;15.00;;;5.55;;
2548;SDS011;1284;53.520;10.248;2022-08-19T10:17:19;15.07;;;5.40;;
2548;SDS011;1284;53.520;10.248;2022-08-19T10:19:45;17.67;;;5.65;;
2548;SDS011;1284;53.520;10.248;2022-08-19T10:22:10;16.50;;;5.82;;
2548;SDS011;1284;53.520;10.248;2022-08-19T10:24:38;11.93;;;4.82;;
2548;SDS011;1284;53.520;10.248;2022-08-19T10:27:04;8.68;;;4.63;;
2548;SDS011;1284;53.520;10.248;2022-08-19T10:29:30;14.32;;;5.93;;
2548;SDS011;1284;53.520;10.248;2022-08-19T10:31:57;15.10;;;6.25;;
2548;SDS011;1284;53.520;10.248;2022-08-19T10:34:25;12.52;;;5.05;;
2548;SDS011;1284;53.520;10.248;2022-08-19T10:36:52;15.35;;;5.65;;
2548;SDS011;1284;53.520;10.248;2022-08-19T10:39:17;15.88;;;5.47;;
2548;SDS011;1284;53.520;10.248;2022-08-19T10:41:45;12.63;;;5.18;;
2548;SDS011;1284;53.520;10.248;2022-08-19T10:44:13;14.95;;;5.70;;
2548;SDS011;1284;53.520;10.248;2022-08-19T10:46:41;17.73;;;5.63;;
2548;SDS011;1284;53.520;10.248;2022-08-19T10:49:12;14.27;;;5.97;;
2548;SDS011;1284;53.520;10.248;2022-08-19T10:51:38;13.75;;;6.00;;
2548;SDS011;1284;53.520;10.248;2022-08-19T10:54:42;14.10;;;5.40;;
2548;SDS011;1284;53.520;10.248;2022-08-19T10:57:30;15.35;;;5.22;;
2548;SDS011;1284;53.520;10.248;2022-08-19T10:59:56;12.52;;;4.95;;
2548;SDS011;1284;53.520;10.248;2022-08-19T11:02:21;16.92;;;5.93;;
2548;SDS011;1284;53.520;10.248;2022-08-19T11:04:47;14.77;;;5.18;;
2548;SDS011;1284;53.520;10.248;2022-08-19T11:07:14;11.50;;;5.28;;
2548;SDS011;1284;53.520;10.248;2022-08-19T11:09:41;15.52;;;5.55;;
2548;SDS011;1284;53.520;10.248;2022-08-19T11:12:07;13.13;;;5.50;;
2548;SDS011;1284;53.520;10.248;2022-08-19T11:14:34;14.00;;;5.25;;
2548;SDS011;1284;53.520;10.248;2022-08-19T11:17:01;14.20;;;6.63;;
2548;SDS011;1284;53.520;10.248;2022-08-19T11:19:28;13.63;;;6.05;;
2548;SDS011;1284;53.520;10.248;2022-08-19T11:21:55;13.85;;;4.90;;
2548;SDS011;1284;53.520;10.248;2022-08-19T11:24:21;12.82;;;5.43;;
2548;SDS011;1284;53.520;10.248;2022-08-19T11:26:50;17.55;;;4.82;;
2548;SDS011;1284;53.520;10.248;2022-08-19T11:29:17;14.20;;;5.65;;
2548;SDS011;1284;53.520;10.248;2022-08-19T11:31:45;15.55;;;6.03;;
2548;SDS011;1284;53.520;10.248;2022-08-19T11:34:13;10.98;;;5.20;;
2548;SDS011;1284;53.520;10.248;2022-08-19T11:36:43;11.90;;;5.10;;
2548;SDS011;1284;53.520;10.248;2022-08-19T11:39:11;16.60;;;5.85;;
2548;SDS011;1284;53.520;10.248;2022-08-19T11:41:38;15.90;;;5.28;;
2548;SDS011;1284;53.520;10.248;2022-08-19T11:44:03;16.60;;;5.63;;
2548;SDS011;1284;53.520;10.248;2022-08-19T11:46:30;12.02;;;5.05;;
2548;SDS011;1284;53.520;10.248;2022-08-19T11:48:56;11.45;;;5.45;;
2548;SDS011;1284;53.520;10.248;2022-08-19T11:51:24;13.98;;;5.45;;
2548;SDS011;1284;53.520;10.248;2022-08-19T11:53:50;14.18;;;5.13;;
2548;SDS011;1284;53.520;10.248;2022-08-19T11:56:17;12.93;;;5.47;;
2548;SDS011;1284;53.520;10.248;2022-08-19T11:58:44;14.27;;;5.32;;
2548;SDS011;1284;53.520;10.248;2022-08-19T12:01:13;11.70;;;4.80;;
2548;SDS011;1284;53.520;10.248;2022-08-19T12:03:47;14.65;;;5.55;;
2548;SDS011;1284;53.520;10.248;2022-08-19T12:06:19;15.07;;;5.72;;
2548;SDS011;1284;53.520;10.248;2022-08-19T12:08:59;12.77;;;5.82;;
2548;SDS011;1284;53.520;10.248;2022-08-19T12:11:28;15.02;;;5.43;;
2548;SDS011;1284;53.520;10.248;2022-08-19T12:13:55;13.43;;;6.05;;
2548;SDS011;1284;53.520;10.248;2022-08-19T12:16:22;13.63;;;6.50;;
2548;SDS011;1284;53.520;10.248;2022-08-19T12:21:19;12.73;;;4.93;;
2548;SDS011;1284;53.520;10.248;2022-08-19T12:23:47;11.07;;;4.93;;
2548;SDS011;1284;53.520;10.248;2022-08-19T12:26:16;13.45;;;5.38;;
2548;SDS011;1284;53.520;10.248;2022-08-19T12:28:42;11.95;;;5.45;;
2548;SDS011;1284;53.520;10.248;2022-08-19T12:31:09;13.98;;;5.53;;
2548;SDS011;1284;53.520;10.248;2022-08-19T12:33:37;16.77;;;5.00;;
2548;SDS011;1284;53.520;10.248;2022-08-19T12:36:04;10.73;;;5.15;;
2548;SDS011;1284;53.520;10.248;2022-08-19T12:38:31;11.93;;;5.20;;
2548;SDS011;1284;53.520;10.248;2022-08-19T12:40:57;15.68;;;6.43;;
2548;SDS011;1284;53.520;10.248;2022-08-19T12:43:23;10.57;;;5.28;;
2548;SDS011;1284;53.520;10.248;2022-08-19T12:45:49;10.10;;;5.30;;
2548;SDS011;1284;53.520;10.248;2022-08-19T12:48:14;10.25;;;4.97;;
2548;SDS011;1284;53.520;10.248;2022-08-19T12:50:40;12.02;;;4.82;;
2548;SDS011;1284;53.520;10.248;2022-08-19T12:53:07;9.48;;;4.40;;
2548;SDS011;1284;53.520;10.248;2022-08-19T12:55:32;8.30;;;4.60;;
2548;SDS011;1284;53.520;10.248;2022-08-19T12:57:58;11.57;;;4.43;;
2548;SDS011;1284;53.520;10.248;2022-08-19T13:00:26;10.15;;;4.10;;
2548;SDS011;1284;53.520;10.248;2022-08-19T13:02:53;10.02;;;4.57;;
2548;SDS011;1284;53.520;10.248;2022-08-19T13:05:20;8.90;;;4.30;;
2548;SDS011;1284;53.520;10.248;2022-08-19T13:07:51;11.75;;;4.40;;
2548;SDS011;1284;53.520;10.248;2022-08-19T13:10:21;12.97;;;4.73;;
2548;SDS011;1284;53.520;10.248;2022-08-19T13:12:49;9.70;;;4.22;;
2548;SDS011;1284;53.520;10.248;2022-08-19T13:15:16;12.02;;;4.15;;
2548;SDS011;1284;53.520;10.248;2022-08-19T13:17:46;7.43;;;3.95;;
2548;SDS011;1284;53.520;10.248;2022-08-19T13:20:14;8.73;;;4.00;;
2548;SDS011;1284;53.520;10.248;2022-08-19T13:22:44;9.82;;;3.63;;
2548;SDS011;1284;53.520;10.248;2022-08-19T13:25:11;7.00;;;3.55;;
2548;SDS011;1284;53.520;10.248;2022-08-19T13:27:38;7.03;;;3.72;;
2548;SDS011;1284;53.520;10.248;2022-08-19T13:30:05;7.15;;;3.67;;
2548;SDS011;1284;53.520;10.248;2022-08-19T13:32:53;7.78;;;3.90;;
2548;SDS011;1284;53.520;10.248;2022-08-19T13:38:08;8.55;;;3.95;;
2548;SDS011;1284;53.520;10.248;2022-08-19T13:40:35;7.30;;;3.60;;
2548;SDS011;1284;53.520;10.248;2022-08-19T13:43:08;6.47;;;3.63;;
2548;SDS011;1284;53.520;10.248;2022-08-19T13:45:37;11.63;;;4.00;;
2548;SDS011;1284;53.520;10.248;2022-08-19T13:48:06;6.68;;;3.17;;
2548;SDS011;1284;53.520;10.248;2022-08-19T13:50:40;5.82;;;3.42;;
2548;SDS011;1284;53.520;10.248;2022-08-19T13:53:08;6.78;;;3.80;;
2548;SDS011;1284;53.520;10.248;2022-08-19T13:55:36;9.07;;;2.88;;
2548;SDS011;1284;53.520;10.248;2022-08-19T13:58:02;4.60;;;2.95;;
2548;SDS011;1284;53.520;10.248;2022-08-19T14:00:30;5.82;;;3.10;;
2548;SDS011;1284;53.520;10.248;2022-08-19T14:02:59;6.93;;;3.97;;
2548;SDS011;1284;53.520;10.248;2022-08-19T14:05:25;7.25;;;3.60;;
2548;SDS011;1284;53.520;10.248;2022-08-19T14:07:52;6.95;;;3.33;;
2548;SDS011;1284;53.520;10.248;2022-08-19T14:10:18;5.78;;;3.08;;
2548;SDS011;1284;53.520;10.248;2022-08-19T14:12:44;8.07;;;3.15;;
2548;SDS011;1284;53.520;10.248;2022-08-19T14:15:10;7.05;;;3.03;;
2548;SDS011;1284;53.520;10.248;2022-08-19T14:17:37;9.30;;;3.50;;
2548;SDS011;1284;53.520;10.248;2022-08-19T14:20:06;5.22;;;3.05;;
2548;SDS011;1284;53.520;10.248;2022-08-19T14:22:34;5.03;;;2.80;;
2548;SDS011;1284;53.520;10.248;2022-08-19T14:25:01;5.35;;;2.88;;
2548;SDS011;1284;53.520;10.248;2022-08-19T14:27:27;5.25;;;3.30;;
2548;SDS011;1284;53.520;10.248;2022-08-19T14:29:53;4.95;;;3.33;;
2548;SDS011;1284;53.520;10.248;2022-08-19T14:32:18;4.25;;;2.53;;
2548;SDS011;1284;53.520;10.248;2022-08-19T14:34:44;7.28;;;3.55;;
2548;SDS011;1284;53.520;10.248;2022-08-19T14:37:13;7.55;;;3.25;;
2548;SDS011;1284;53.520;10.248;2022-08-19T14:39:40;5.10;;;3.00;;
2548;SDS011;1284;53.520;10.248;2022-08-19T14:42:07;7.55;;;3.60;;
2548;SDS011;1284;53.520;10.248;2022-08-19T14:44:34;6.55;;;3.70;;
2548;SDS011;1284;53.520;10.248;2022-08-19T14:47:00;6.25;;;3.53;;
2548;SDS011;1284;53.520;10.248;2022-08-19T14:49:26;6.07;;;3.40;;
2548;SDS011;1284;53.520;10.248;2022-08-19T14:51:51;6.55;;;3.55;;
2548;SDS011;1284;53.520;10.248;2022-08-19T14:54:17;5.43;;;3.05;;
2548;SDS011;1284;53.520;10.248;2022-08-19T14:56:43;6.00;;;3.20;;
2548;SDS011;1284;53.520;10.248;2022-08-19T14:59:08;5.72;;;3.17;;
2548;SDS011;1284;53.520;10.248;2022-08-19T15:01:34;6.18;;;3.15;;
2548;SDS011;1284;53.520;10.248;2022-08-19T15:04:00;6.53;;;2.85;;
2548;SDS011;1284;53.520;10.248;2022-08-19T15:06:25;5.18;;;3.15;;
2548;SDS011;1284;53.520;10.248;2022-08-19T15:08:51;5.50;;;3.00;;
2548;SDS011;1284;53.520;10.248;2022-08-19T15:11:19;5.97;;;3.05;;
2548;SDS011;1284;53.520;10.248;2022-08-19T15:13:46;7.75;;;3.50;;
2548;SDS011;1284;53.520;10.248;2022-08-19T15:16:13;4.93;;;2.95;;
2548;SDS011;1284;53.520;10.248;2022-08-19T15:18:42;6.78;;;3.40;;
2548;SDS011;1284;53.520;10.248;2022-08-19T15:21:10;6.30;;;2.83;;
2548;SDS011;1284;53.520;10.248;2022-08-19T15:23:37;4.70;;;2.65;;
2548;SDS011;1284;53.520;10.248;2022-08-19T15:26:03;4.53;;;2.70;;
2548;SDS011;1284;53.520;10.248;2022-08-19T15:28:31;4.38;;;2.53;;
2548;SDS011;1284;53.520;10.248;2022-08-19T15:30:57;6.68;;;3.03;;